createdAt,value
2018-09-09T00:00:18.692Z,101651.64
2018-09-09T00:01:23.111Z,101648.11
2018-09-09T00:02:27.274Z,101657.02
2018-09-09T00:03:31.414Z,101662.89
2018-09-09T00:04:35.580Z,101651.29
2018-09-09T00:05:39.768Z,101663.39
2018-09-09T00:06:44.073Z,101662.22
2018-09-09T00:07:48.272Z,101652.80
2018-09-09T00:08:52.633Z,101656.84
2018-09-09T00:09:56.787Z,101658.50
2018-09-09T00:11:01.000Z,101651.45
2018-09-09T00:12:05.330Z,101656.48
2018-09-09T00:13:09.554Z,101657.47
2018-09-09T00:14:13.761Z,101647.38
2018-09-09T00:15:17.894Z,101647.02
2018-09-09T00:16:22.103Z,101647.52
2018-09-09T00:17:26.274Z,101637.78
2018-09-09T00:18:30.455Z,101642.80
2018-09-09T00:19:34.614Z,101650.02
2018-09-09T00:20:38.803Z,101651.50
2018-09-09T00:21:42.951Z,101647.64
2018-09-09T00:22:47.081Z,101645.80
2018-09-09T00:23:51.519Z,101636.89
2018-09-09T00:24:56.069Z,101638.23
2018-09-09T00:26:00.247Z,101630.17
2018-09-09T00:27:04.746Z,101631.87
2018-09-09T00:28:08.893Z,101651.86
2018-09-09T00:29:13.124Z,101655.39
2018-09-09T00:30:17.268Z,101652.84
2018-09-09T00:31:21.426Z,101654.72
2018-09-09T00:32:25.760Z,101646.79
2018-09-09T00:33:29.955Z,101641.91
2018-09-09T00:34:34.170Z,101630.31
2018-09-09T00:35:41.140Z,101636.53
2018-09-09T00:36:45.344Z,101639.22
2018-09-09T00:37:49.489Z,101644.95
2018-09-09T00:38:53.784Z,101653.51
2018-09-09T00:39:57.932Z,101659.38
2018-09-09T00:41:02.224Z,101664.43
2018-09-09T00:42:06.361Z,101649.79
2018-09-09T00:43:10.548Z,101640.88
2018-09-09T00:44:14.705Z,101641.37
2018-09-09T00:45:19.051Z,101647.59
2018-09-09T00:46:23.212Z,101649.43
2018-09-09T00:47:27.396Z,101650.28
2018-09-09T00:48:31.525Z,101654.80
2018-09-09T00:49:40.961Z,101651.63
2018-09-09T00:50:50.289Z,101650.77
2018-09-09T00:51:59.680Z,101652.12
2018-09-09T00:53:09.204Z,101648.09
2018-09-09T00:54:13.430Z,101646.74
2018-09-09T00:55:17.586Z,101645.89
2018-09-09T00:56:21.810Z,101649.11
2018-09-09T00:57:26.090Z,101643.73
2018-09-09T00:58:30.242Z,101639.17
2018-09-09T00:59:34.417Z,101635.14
2018-09-09T01:00:44.034Z,101632.45
2018-09-09T01:01:48.272Z,101635.14
2018-09-09T01:02:52.509Z,101637.50
2018-09-09T01:03:56.653Z,101632.12
2018-09-09T01:05:00.793Z,101622.73
2018-09-09T01:06:04.969Z,101620.03
2018-09-09T01:07:09.186Z,101618.70
2018-09-09T01:08:13.407Z,101612.83
2018-09-09T01:09:17.581Z,101617.84
2018-09-09T01:10:21.845Z,101614.66
2018-09-09T01:11:26.066Z,101610.63
2018-09-09T01:12:30.328Z,101601.86
2018-09-09T01:13:34.480Z,101607.09
2018-09-09T01:14:38.738Z,101601.72
2018-09-09T01:15:43.107Z,101612.11
2018-09-09T01:16:47.285Z,101625.23
2018-09-09T01:17:51.471Z,101629.75
2018-09-09T01:18:55.618Z,101630.38
2018-09-09T01:19:59.786Z,101637.59
2018-09-09T01:21:03.968Z,101640.45
2018-09-09T01:22:08.280Z,101650.34
2018-09-09T01:23:12.501Z,101649.67
2018-09-09T01:24:16.652Z,101643.45
2018-09-09T01:25:21.010Z,101644.08
2018-09-09T01:26:25.180Z,101649.63
2018-09-09T01:27:29.305Z,101652.80
2018-09-09T01:28:33.585Z,101648.41
2018-09-09T01:29:37.718Z,101651.27
2018-09-09T01:30:41.999Z,101655.30
2018-09-09T01:31:46.141Z,101660.81
2018-09-09T01:32:50.302Z,101658.13
2018-09-09T01:33:54.515Z,101652.92
2018-09-09T01:34:58.666Z,101663.17
2018-09-09T01:36:02.983Z,101661.97
2018-09-09T01:37:07.191Z,101670.87
2018-09-09T01:38:11.443Z,101666.84
2018-09-09T01:39:15.613Z,101661.97
2018-09-09T01:40:19.812Z,101660.78
2018-09-09T01:41:24.109Z,101664.81
2018-09-09T01:42:28.246Z,101664.81
2018-09-09T01:43:32.498Z,101656.05
2018-09-09T01:44:36.722Z,101658.54
2018-09-09T01:45:40.887Z,101655.85
2018-09-09T01:46:45.028Z,101662.57
2018-09-09T01:47:49.229Z,101657.69
2018-09-09T01:48:53.409Z,101659.88
2018-09-09T01:49:57.585Z,101663.55
2018-09-09T01:51:01.784Z,101665.39
2018-09-09T01:52:05.995Z,101655.17
2018-09-09T01:53:10.536Z,101657.33
2018-09-09T01:54:14.690Z,101656.84
2018-09-09T01:55:18.913Z,101655.50
2018-09-09T01:56:23.062Z,101654.64
2018-09-09T01:57:27.208Z,101651.95
2018-09-09T01:58:31.355Z,101646.09
2018-09-09T01:59:35.502Z,101656.34
2018-09-09T02:00:39.868Z,101648.28
2018-09-09T02:01:44.052Z,101652.31
2018-09-09T02:02:48.783Z,101655.85
2018-09-09T02:03:52.937Z,101653.17
2018-09-09T02:04:57.106Z,101656.21
2018-09-09T02:06:01.335Z,101658.05
2018-09-09T02:07:05.521Z,101652.67
2018-09-09T02:08:09.902Z,101654.37
2018-09-09T02:09:14.094Z,101646.45
2018-09-09T02:10:18.284Z,101641.56
2018-09-09T02:11:22.447Z,101649.27
2018-09-09T02:12:26.633Z,101647.60
2018-09-09T02:13:31.924Z,101649.58
2018-09-09T02:14:36.161Z,101648.23
2018-09-09T02:15:40.309Z,101653.28
2018-09-09T02:16:44.529Z,101651.22
2018-09-09T02:17:48.687Z,101653.06
2018-09-09T02:18:52.872Z,101651.72
2018-09-09T02:19:57.052Z,101643.33
2018-09-09T02:21:01.225Z,101644.67
2018-09-09T02:22:05.475Z,101640.97
2018-09-09T02:23:09.637Z,101648.21
2018-09-09T02:24:13.806Z,101653.58
2018-09-09T02:25:18.003Z,101652.73
2018-09-09T02:26:22.461Z,101656.27
2018-09-09T02:27:26.739Z,101661.28
2018-09-09T02:28:31.094Z,101656.89
2018-09-09T02:29:35.261Z,101659.58
2018-09-09T02:30:39.452Z,101658.23
2018-09-09T02:31:43.637Z,101658.11
2018-09-09T02:32:47.852Z,101661.28
2018-09-09T02:33:52.209Z,101658.11
2018-09-09T02:34:56.410Z,101656.41
2018-09-09T02:36:00.596Z,101660.92
2018-09-09T02:37:04.814Z,101660.92
2018-09-09T02:38:09.075Z,101656.57
2018-09-09T02:39:13.222Z,101659.39
2018-09-09T02:40:17.369Z,101659.88
2018-09-09T02:41:21.560Z,101663.23
2018-09-09T02:42:25.728Z,101654.81
2018-09-09T02:43:29.913Z,101656.02
2018-09-09T02:44:34.469Z,101647.11
2018-09-09T02:45:38.611Z,101651.47
2018-09-09T02:46:42.743Z,101643.94
2018-09-09T02:47:46.890Z,101640.89
2018-09-09T02:48:51.074Z,101645.91
2018-09-09T02:49:55.350Z,101653.47
2018-09-09T02:50:59.500Z,101655.47
2018-09-09T02:52:03.656Z,101660.98
2018-09-09T02:53:07.797Z,101661.83
2018-09-09T02:54:11.980Z,101662.81
2018-09-09T02:55:16.105Z,101662.81
2018-09-09T02:56:20.280Z,101661.14
2018-09-09T02:57:24.444Z,101662.12
2018-09-09T02:58:28.774Z,101661.28
2018-09-09T02:59:32.992Z,101664.95
2018-09-09T03:00:37.155Z,101662.27
2018-09-09T03:01:41.290Z,101658.76
2018-09-09T03:02:45.482Z,101659.74
2018-09-09T03:03:49.623Z,101663.77
2018-09-09T03:04:53.819Z,101662.07
2018-09-09T03:05:57.956Z,101662.23
2018-09-09T03:07:02.136Z,101667.61
2018-09-09T03:08:06.711Z,101672.75
2018-09-09T03:09:10.887Z,101671.08
2018-09-09T03:10:15.246Z,101664.02
2018-09-09T03:11:19.405Z,101657.66
2018-09-09T03:12:23.620Z,101650.45
2018-09-09T03:13:27.783Z,101646.75
2018-09-09T03:14:31.964Z,101645.60
2018-09-09T03:15:36.475Z,101649.98
2018-09-09T03:16:40.989Z,101662.07
2018-09-09T03:17:45.107Z,101657.69
2018-09-09T03:18:49.399Z,101651.33
2018-09-09T03:19:53.775Z,101633.02
2018-09-09T03:20:58.120Z,101633.37
2018-09-09T03:22:02.321Z,101636.91
2018-09-09T03:23:06.835Z,101635.58
2018-09-09T03:24:11.016Z,101630.20
2018-09-09T03:25:15.245Z,101623.98
2018-09-09T03:26:19.419Z,101635.58
2018-09-09T03:27:23.897Z,101654.73
2018-09-09T03:28:28.065Z,101670.13
2018-09-09T03:29:32.231Z,101662.56
2018-09-09T03:30:36.429Z,101663.05
2018-09-09T03:31:40.680Z,101656.34
2018-09-09T03:32:44.999Z,101652.84
2018-09-09T03:33:49.154Z,101647.80
2018-09-09T03:34:53.807Z,101647.80
2018-09-09T03:35:57.931Z,101659.38
2018-09-09T03:37:02.319Z,101661.71
2018-09-09T03:38:06.484Z,101663.05
2018-09-09T03:39:10.936Z,101662.56
2018-09-09T03:40:15.280Z,101655.52
2018-09-09T03:41:19.653Z,101653.46
2018-09-09T03:42:23.962Z,101650.64
2018-09-09T03:43:28.273Z,101647.24
2018-09-09T03:44:32.405Z,101655.30
2018-09-09T03:45:36.546Z,101644.91
2018-09-09T03:46:40.723Z,101641.88
2018-09-09T03:47:44.926Z,101637.52
2018-09-09T03:48:49.131Z,101642.39
2018-09-09T03:49:53.659Z,101647.77
2018-09-09T03:50:57.863Z,101645.90
2018-09-09T03:52:02.056Z,101644.23
2018-09-09T03:53:06.537Z,101644.91
2018-09-09T03:54:10.709Z,101644.42
2018-09-09T03:55:14.867Z,101646.62
2018-09-09T03:56:19.043Z,101641.25
2018-09-09T03:57:23.179Z,101642.91
2018-09-09T03:58:27.425Z,101646.62
2018-09-09T03:59:31.652Z,101654.31
2018-09-09T04:00:35.959Z,101650.09
2018-09-09T04:01:40.135Z,101656.81
2018-09-09T04:02:44.322Z,101653.27
2018-09-09T04:03:48.846Z,101647.91
2018-09-09T04:04:53.010Z,101638.50
2018-09-09T04:05:57.697Z,101634.12
2018-09-09T04:07:02.214Z,101630.09
2018-09-09T04:08:06.358Z,101636.31
2018-09-09T04:09:11.038Z,101627.41
2018-09-09T04:10:15.293Z,101633.27
2018-09-09T04:11:19.413Z,101635.95
2018-09-09T04:12:27.269Z,101635.46
2018-09-09T04:13:31.399Z,101635.13
2018-09-09T04:14:35.584Z,101635.13
2018-09-09T04:15:39.799Z,101636.61
2018-09-09T04:16:43.950Z,101624.89
2018-09-09T04:17:48.156Z,101626.72
2018-09-09T04:18:52.464Z,101635.13
2018-09-09T04:19:56.630Z,101632.45
2018-09-09T04:21:00.862Z,101633.80
2018-09-09T04:22:05.006Z,101640.50
2018-09-09T04:23:09.198Z,101643.19
2018-09-09T04:24:13.451Z,101644.53
2018-09-09T04:25:17.678Z,101651.24
2018-09-09T04:26:21.899Z,101652.59
2018-09-09T04:27:26.373Z,101647.84
2018-09-09T04:28:30.665Z,101652.23
2018-09-09T04:29:34.925Z,101653.08
2018-09-09T04:30:39.114Z,101651.73
2018-09-09T04:31:43.285Z,101657.59
2018-09-09T04:32:47.445Z,101663.95
2018-09-09T04:33:51.587Z,101656.55
2018-09-09T04:34:55.763Z,101663.10
2018-09-09T04:35:59.985Z,101659.23
2018-09-09T04:37:04.421Z,101658.39
2018-09-09T04:38:08.577Z,101662.91
2018-09-09T04:39:14.131Z,101660.68
2018-09-09T04:40:18.278Z,101656.82
2018-09-09T04:41:22.458Z,101657.44
2018-09-09T04:42:26.615Z,101657.44
2018-09-09T04:43:30.744Z,101666.84
2018-09-09T04:44:34.919Z,101665.17
2018-09-09T04:45:39.107Z,101661.14
2018-09-09T04:46:43.418Z,101664.31
2018-09-09T04:47:47.998Z,101671.39
2018-09-09T04:48:52.260Z,101665.17
2018-09-09T04:49:56.581Z,101665.50
2018-09-09T04:51:00.810Z,101664.67
2018-09-09T04:52:04.984Z,101672.56
2018-09-09T04:53:09.150Z,101671.72
2018-09-09T04:54:13.287Z,101677.94
2018-09-09T04:55:17.447Z,101680.63
2018-09-09T04:56:21.995Z,101675.74
2018-09-09T04:57:26.163Z,101675.74
2018-09-09T04:58:30.327Z,101669.03
2018-09-09T04:59:35.571Z,101677.94
2018-09-09T05:00:39.788Z,101672.20
2018-09-09T05:01:44.162Z,101675.91
2018-09-09T05:02:48.510Z,101672.50
2018-09-09T05:03:52.675Z,101673.16
2018-09-09T05:04:57.260Z,101675.16
2018-09-09T05:06:01.436Z,101682.85
2018-09-09T05:07:05.650Z,101683.47
2018-09-09T05:08:10.405Z,101686.45
2018-09-09T05:09:14.598Z,101683.77
2018-09-09T05:10:18.897Z,101681.09
2018-09-09T05:11:23.063Z,101680.27
2018-09-09T05:12:27.189Z,101684.63
2018-09-09T05:13:31.365Z,101691.82
2018-09-09T05:14:35.545Z,101686.12
2018-09-09T05:15:39.747Z,101684.78
2018-09-09T05:16:43.897Z,101682.72
2018-09-09T05:17:48.046Z,101675.03
2018-09-09T05:18:52.410Z,101673.20
2018-09-09T05:19:56.557Z,101666.98
2018-09-09T05:21:00.695Z,101666.00
2018-09-09T05:22:04.919Z,101666.32
2018-09-09T05:23:09.276Z,101660.47
2018-09-09T05:24:13.514Z,101666.19
2018-09-09T05:25:17.660Z,101661.31
2018-09-09T05:26:22.047Z,101656.93
2018-09-09T05:27:26.581Z,101660.83
2018-09-09T05:28:30.814Z,101663.02
2018-09-09T05:29:35.028Z,101668.71
2018-09-09T05:30:39.327Z,101672.24
2018-09-09T05:31:43.493Z,101681.15
2018-09-09T05:32:47.840Z,101683.47
2018-09-09T05:33:52.248Z,101690.70
2018-09-09T05:34:56.413Z,101701.22
2018-09-09T05:36:00.762Z,101703.57
2018-09-09T05:37:05.327Z,101704.06
2018-09-09T05:38:09.499Z,101708.28
2018-09-09T05:39:13.691Z,101702.06
2018-09-09T05:40:17.955Z,101707.63
2018-09-09T05:41:22.161Z,101705.96
2018-09-09T05:42:26.523Z,101708.84
2018-09-09T05:43:30.732Z,101717.75
2018-09-09T05:44:34.900Z,101710.38
2018-09-09T05:45:39.113Z,101708.55
2018-09-09T05:46:43.355Z,101705.38
2018-09-09T05:47:47.564Z,101708.42
2018-09-09T05:48:51.838Z,101705.73
2018-09-09T05:49:56.002Z,101700.36
2018-09-09T05:51:00.178Z,101702.88
2018-09-09T05:52:04.385Z,101703.73
2018-09-09T05:53:08.518Z,101713.00
2018-09-09T05:54:12.670Z,101716.02
2018-09-09T05:55:16.870Z,101711.50
2018-09-09T05:56:21.102Z,101716.73
2018-09-09T05:57:25.840Z,101717.45
2018-09-09T05:58:30.024Z,101715.27
2018-09-09T05:59:34.289Z,101711.23
2018-09-09T06:00:38.457Z,101707.56
2018-09-09T06:01:42.664Z,101703.05
2018-09-09T06:02:46.801Z,101708.25
2018-09-09T06:03:50.978Z,101709.27
2018-09-09T06:04:55.153Z,101710.09
2018-09-09T06:05:59.342Z,101708.25
2018-09-09T06:07:03.559Z,101709.59
2018-09-09T06:08:07.730Z,101716.17
2018-09-09T06:09:12.326Z,101717.03
2018-09-09T06:10:16.485Z,101721.05
2018-09-09T06:11:20.669Z,101721.05
2018-09-09T06:12:25.048Z,101719.71
2018-09-09T06:13:29.182Z,101721.37
2018-09-09T06:14:33.325Z,101719.06
2018-09-09T06:15:37.520Z,101727.11
2018-09-09T06:16:41.707Z,101721.25
2018-09-09T06:17:46.000Z,101718.41
2018-09-09T06:18:50.163Z,101725.83
2018-09-09T06:19:54.397Z,101727.50
2018-09-09T06:20:58.549Z,101729.56
2018-09-09T06:22:02.707Z,101729.40
2018-09-09T06:23:07.046Z,101727.92
2018-09-09T06:24:11.170Z,101730.97
2018-09-09T06:25:15.368Z,101733.66
2018-09-09T06:26:19.506Z,101742.05
2018-09-09T06:27:23.675Z,101738.02
2018-09-09T06:28:28.229Z,101737.88
2018-09-09T06:29:32.484Z,101737.88
2018-09-09T06:30:36.646Z,101742.76
2018-09-09T06:31:40.798Z,101746.78
2018-09-09T06:32:44.990Z,101738.73
2018-09-09T06:33:49.213Z,101735.03
2018-09-09T06:34:53.652Z,101734.05
2018-09-09T06:35:57.826Z,101737.42
2018-09-09T06:37:02.012Z,101740.95
2018-09-09T06:38:06.448Z,101738.98
2018-09-09T06:39:11.866Z,101742.17
2018-09-09T06:40:16.243Z,101738.14
2018-09-09T06:41:20.784Z,101735.81
2018-09-09T06:42:24.960Z,101738.98
2018-09-09T06:43:29.157Z,101742.36
2018-09-09T06:44:33.371Z,101741.21
2018-09-09T06:45:37.565Z,101738.88
2018-09-09T06:46:41.745Z,101739.08
2018-09-09T06:47:45.898Z,101738.95
2018-09-09T06:48:50.108Z,101740.12
2018-09-09T06:49:54.306Z,101736.45
2018-09-09T06:50:58.463Z,101743.72
2018-09-09T06:52:02.626Z,101741.72
2018-09-09T06:53:07.422Z,101740.56
2018-09-09T06:54:11.591Z,101740.08
2018-09-09T06:55:16.055Z,101742.13
2018-09-09T06:56:20.212Z,101742.46
2018-09-09T06:57:24.390Z,101742.16
2018-09-09T06:58:31.649Z,101738.48
2018-09-09T06:59:36.052Z,101737.14
2018-09-09T07:00:40.241Z,101744.58
2018-09-09T07:01:44.868Z,101746.25
2018-09-09T07:02:49.035Z,101738.55
2018-09-09T07:03:53.321Z,101742.08
2018-09-09T07:04:57.530Z,101741.59
2018-09-09T07:06:01.722Z,101739.23
2018-09-09T07:07:06.287Z,101740.08
2018-09-09T07:08:10.492Z,101739.94
2018-09-09T07:09:14.647Z,101741.97
2018-09-09T07:10:18.807Z,101741.31
2018-09-09T07:11:23.145Z,101742.52
2018-09-09T07:12:27.159Z,101743.37
2018-09-09T07:13:31.330Z,101743.20
2018-09-09T07:14:35.631Z,101740.02
2018-09-09T07:15:39.927Z,101735.00
2018-09-09T07:16:44.091Z,101739.22
2018-09-09T07:17:48.218Z,101742.45
2018-09-09T07:18:52.591Z,101739.95
2018-09-09T07:19:56.755Z,101745.03
2018-09-09T07:21:00.913Z,101742.56
2018-09-09T07:22:05.126Z,101750.95
2018-09-09T07:23:09.274Z,101743.06
2018-09-09T07:24:13.466Z,101752.47
2018-09-09T07:25:17.640Z,101747.23
2018-09-09T07:26:21.894Z,101747.58
2018-09-09T07:27:26.063Z,101749.11
2018-09-09T07:28:30.952Z,101746.64
2018-09-09T07:29:35.047Z,101745.52
2018-09-09T07:30:39.311Z,101745.36
2018-09-09T07:31:43.441Z,101749.93
2018-09-09T07:32:54.302Z,101749.80
2018-09-09T07:33:58.493Z,101747.78
2018-09-09T07:35:02.826Z,101742.90
2018-09-09T07:36:07.391Z,101745.09
2018-09-09T07:37:11.662Z,101749.81
2018-09-09T07:38:15.918Z,101753.35
2018-09-09T07:39:20.066Z,101749.50
2018-09-09T07:40:24.217Z,101750.58
2018-09-09T07:41:28.406Z,101760.00
2018-09-09T07:42:32.738Z,101760.41
2018-09-09T07:43:36.923Z,101759.11
2018-09-09T07:44:41.115Z,101757.78
2018-09-09T07:45:45.294Z,101759.34
2018-09-09T07:46:49.460Z,101759.53
2018-09-09T07:47:53.659Z,101757.87
2018-09-09T07:48:57.967Z,101762.09
2018-09-09T07:50:02.121Z,101766.31
2018-09-09T07:51:06.353Z,101770.70
2018-09-09T07:52:10.580Z,101766.00
2018-09-09T07:53:14.754Z,101768.55
2018-09-09T07:54:18.962Z,101773.44
2018-09-09T07:55:23.097Z,101772.94
2018-09-09T07:56:27.335Z,101768.05
2018-09-09T07:57:31.468Z,101771.06
2018-09-09T07:58:35.809Z,101771.42
2018-09-09T07:59:39.977Z,101768.78
2018-09-09T08:00:44.155Z,101762.73
2018-09-09T08:01:48.296Z,101766.80
2018-09-09T08:02:52.430Z,101766.14
2018-09-09T08:03:56.635Z,101765.83
2018-09-09T08:05:00.852Z,101762.84
2018-09-09T08:06:05.046Z,101767.39
2018-09-09T08:07:09.379Z,101768.95
2018-09-09T08:08:13.560Z,101766.27
2018-09-09T08:09:17.776Z,101768.35
2018-09-09T08:10:21.955Z,101768.53
2018-09-09T08:11:31.126Z,101771.76
2018-09-09T08:12:35.300Z,101774.13
2018-09-09T08:13:39.515Z,101769.42
2018-09-09T08:14:43.688Z,101771.30
2018-09-09T08:15:47.846Z,101773.50
2018-09-09T08:16:52.042Z,101770.80
2018-09-09T08:17:56.178Z,101765.27
2018-09-09T08:19:00.415Z,101774.53
2018-09-09T08:20:04.746Z,101773.53
2018-09-09T08:21:08.952Z,101771.88
2018-09-09T08:22:13.105Z,101769.03
2018-09-09T08:23:17.349Z,101771.55
2018-09-09T08:24:21.531Z,101773.08
2018-09-09T08:25:25.858Z,101772.08
2018-09-09T08:26:30.050Z,101760.13
2018-09-09T08:27:34.876Z,101767.58
2018-09-09T08:28:39.433Z,101763.86
2018-09-09T08:29:43.559Z,101771.30
2018-09-09T08:30:47.763Z,101762.89
2018-09-09T08:31:51.962Z,101759.88
2018-09-09T08:32:56.174Z,101769.66
2018-09-09T08:34:00.305Z,101767.64
2018-09-09T08:35:04.624Z,101765.30
2018-09-09T08:36:08.789Z,101770.16
2018-09-09T08:37:13.037Z,101765.62
2018-09-09T08:38:17.409Z,101772.36
2018-09-09T08:39:21.624Z,101773.20
2018-09-09T08:40:25.760Z,101771.86
2018-09-09T08:41:29.903Z,101774.91
2018-09-09T08:42:34.163Z,101767.67
2018-09-09T08:43:38.366Z,101766.14
2018-09-09T08:44:42.485Z,101770.19
2018-09-09T08:45:46.675Z,101772.73
2018-09-09T08:46:50.811Z,101772.23
2018-09-09T08:47:54.998Z,101773.41
2018-09-09T08:48:59.145Z,101770.39
2018-09-09T08:50:03.366Z,101774.46
2018-09-09T08:51:07.508Z,101782.58
2018-09-09T08:52:12.603Z,101775.52
2018-09-09T08:53:16.736Z,101778.38
2018-09-09T08:54:20.931Z,101776.20
2018-09-09T08:55:25.076Z,101781.28
2018-09-09T08:56:29.359Z,101776.55
2018-09-09T08:57:33.622Z,101779.66
2018-09-09T08:58:37.860Z,101782.87
2018-09-09T08:59:42.089Z,101783.41
2018-09-09T09:00:46.366Z,101784.77
2018-09-09T09:01:50.525Z,101785.44
2018-09-09T09:02:54.668Z,101785.47
2018-09-09T09:03:58.867Z,101786.30
2018-09-09T09:05:03.084Z,101784.12
2018-09-09T09:06:07.276Z,101776.73
2018-09-09T09:07:11.430Z,101776.91
2018-09-09T09:08:15.684Z,101773.70
2018-09-09T09:09:19.813Z,101777.07
2018-09-09T09:10:24.114Z,101775.22
2018-09-09T09:11:28.371Z,101772.87
2018-09-09T09:12:32.543Z,101782.31
2018-09-09T09:13:36.871Z,101778.27
2018-09-09T09:14:42.851Z,101776.39
2018-09-09T09:15:46.978Z,101778.59
2018-09-09T09:16:51.139Z,101777.42
2018-09-09T09:17:55.491Z,101775.58
2018-09-09T09:18:59.651Z,101775.38
2018-09-09T09:20:03.885Z,101768.31
2018-09-09T09:21:08.034Z,101774.38
2018-09-09T09:22:12.325Z,101773.88
2018-09-09T09:23:16.511Z,101774.38
2018-09-09T09:24:20.657Z,101780.77
2018-09-09T09:25:24.851Z,101778.25
2018-09-09T09:26:29.029Z,101777.41
2018-09-09T09:27:33.182Z,101775.20
2018-09-09T09:28:37.375Z,101780.95
2018-09-09T09:29:59.473Z,101770.31
2018-09-09T09:31:03.689Z,101776.22
2018-09-09T09:32:07.958Z,101780.12
2018-09-09T09:33:12.095Z,101780.29
2018-09-09T09:34:16.262Z,101780.14
2018-09-09T09:35:20.593Z,101783.32
2018-09-09T09:36:24.743Z,101786.72
2018-09-09T09:37:28.922Z,101782.48
2018-09-09T09:38:33.079Z,101783.86
2018-09-09T09:39:37.309Z,101776.11
2018-09-09T09:40:41.439Z,101780.47
2018-09-09T09:41:45.660Z,101773.08
2018-09-09T09:42:50.129Z,101776.13
2018-09-09T09:43:54.444Z,101780.17
2018-09-09T09:44:58.626Z,101784.89
2018-09-09T09:46:02.794Z,101781.19
2018-09-09T09:47:07.244Z,101780.16
2018-09-09T09:48:11.394Z,101781.50
2018-09-09T09:49:15.561Z,101785.55
2018-09-09T09:50:19.722Z,101785.91
2018-09-09T09:51:23.938Z,101785.23
2018-09-09T09:52:28.123Z,101783.20
2018-09-09T09:53:33.365Z,101785.05
2018-09-09T09:54:37.512Z,101786.91
2018-09-09T09:55:41.681Z,101787.25
2018-09-09T09:56:45.870Z,101781.50
2018-09-09T09:57:50.390Z,101783.89
2018-09-09T09:58:54.783Z,101784.54
2018-09-09T09:59:59.005Z,101779.83
2018-09-09T10:01:03.182Z,101781.83
2018-09-09T10:02:07.429Z,101780.66
2018-09-09T10:03:12.291Z,101778.64
2018-09-09T10:04:16.434Z,101778.44
2018-09-09T10:05:20.703Z,101775.75
2018-09-09T10:06:24.884Z,101775.42
2018-09-09T10:07:29.064Z,101773.73
2018-09-09T10:08:33.234Z,101775.08
2018-09-09T10:09:37.593Z,101774.58
2018-09-09T10:10:41.761Z,101775.75
2018-09-09T10:11:45.977Z,101780.47
2018-09-09T10:12:50.222Z,101779.47
2018-09-09T10:13:54.458Z,101774.08
2018-09-09T10:14:58.722Z,101776.78
2018-09-09T10:16:03.604Z,101774.39
2018-09-09T10:17:08.108Z,101773.25
2018-09-09T10:18:12.417Z,101773.56
2018-09-09T10:19:16.569Z,101773.41
2018-09-09T10:20:20.803Z,101779.13
2018-09-09T10:21:25.154Z,101783.88
2018-09-09T10:22:29.410Z,101785.89
2018-09-09T10:23:33.561Z,101789.95
2018-09-09T10:24:37.925Z,101781.52
2018-09-09T10:25:42.135Z,101775.29
2018-09-09T10:26:46.702Z,101773.77
2018-09-09T10:27:50.943Z,101774.62
2018-09-09T10:28:55.157Z,101775.52
2018-09-09T10:29:59.706Z,101773.00
2018-09-09T10:31:04.037Z,101778.22
2018-09-09T10:32:08.402Z,101774.17
2018-09-09T10:33:12.542Z,101769.78
2018-09-09T10:34:16.740Z,101766.56
2018-09-09T10:35:20.962Z,101769.95
2018-09-09T10:36:28.097Z,101764.86
2018-09-09T10:37:32.286Z,101769.11
2018-09-09T10:38:36.433Z,101763.17
2018-09-09T10:39:40.591Z,101767.07
2018-09-09T10:40:44.839Z,101766.06
2018-09-09T10:41:49.003Z,101764.72
2018-09-09T10:42:53.171Z,101766.38
2018-09-09T10:43:57.298Z,101766.38
2018-09-09T10:45:01.476Z,101772.98
2018-09-09T10:46:05.902Z,101769.78
2018-09-09T10:47:10.054Z,101773.14
2018-09-09T10:48:14.192Z,101770.59
2018-09-09T10:49:18.359Z,101772.14
2018-09-09T10:50:22.707Z,101774.00
2018-09-09T10:51:26.898Z,101772.45
2018-09-09T10:52:31.054Z,101772.77
2018-09-09T10:53:35.770Z,101773.28
2018-09-09T10:54:40.130Z,101775.48
2018-09-09T10:55:44.289Z,101775.13
2018-09-09T10:56:48.511Z,101770.89
2018-09-09T10:57:52.650Z,101766.02
2018-09-09T10:58:56.895Z,101774.12
2018-09-09T11:00:00.990Z,101763.97
2018-09-09T11:01:05.191Z,101772.23
2018-09-09T11:02:09.556Z,101767.67
2018-09-09T11:03:13.720Z,101767.32
2018-09-09T11:04:17.860Z,101767.66
2018-09-09T11:05:22.129Z,101767.31
2018-09-09T11:06:26.556Z,101762.40
2018-09-09T11:07:30.771Z,101763.20
2018-09-09T11:08:34.980Z,101765.06
2018-09-09T11:09:39.552Z,101754.73
2018-09-09T11:10:44.060Z,101757.43
2018-09-09T11:11:48.281Z,101756.42
2018-09-09T11:12:52.549Z,101758.42
2018-09-09T11:13:56.864Z,101757.08
2018-09-09T11:15:02.524Z,101757.06
2018-09-09T11:16:07.273Z,101758.42
2018-09-09T11:17:11.625Z,101756.88
2018-09-09T11:18:15.827Z,101754.36
2018-09-09T11:19:19.954Z,101754.02
2018-09-09T11:20:24.117Z,101751.00
2018-09-09T11:21:28.254Z,101749.97
2018-09-09T11:22:32.442Z,101754.88
2018-09-09T11:23:36.627Z,101750.50
2018-09-09T11:24:40.790Z,101755.57
2018-09-09T11:25:44.962Z,101752.02
2018-09-09T11:26:49.132Z,101747.96
2018-09-09T11:27:53.413Z,101750.50
2018-09-09T11:28:57.584Z,101750.31
2018-09-09T11:30:02.148Z,101746.59
2018-09-09T11:31:06.253Z,101750.46
2018-09-09T11:32:10.448Z,101749.95
2018-09-09T11:33:14.687Z,101750.11
2018-09-09T11:34:18.881Z,101746.54
2018-09-09T11:35:23.058Z,101748.08
2018-09-09T11:36:27.253Z,101744.82
2018-09-09T11:37:31.488Z,101752.92
2018-09-09T11:38:35.694Z,101748.00
2018-09-09T11:39:39.969Z,101743.58
2018-09-09T11:40:44.203Z,101740.39
2018-09-09T11:41:48.257Z,101735.61
2018-09-09T11:42:52.487Z,101741.66
2018-09-09T11:43:56.720Z,101743.64
2018-09-09T11:45:00.997Z,101741.76
2018-09-09T11:46:05.316Z,101736.13
2018-09-09T11:47:09.486Z,101738.11
2018-09-09T11:48:13.694Z,101735.37
2018-09-09T11:49:17.858Z,101736.70
2018-09-09T11:50:22.432Z,101742.27
2018-09-09T11:51:26.635Z,101738.34
2018-09-09T11:52:31.456Z,101740.34
2018-09-09T11:53:35.821Z,101745.43
2018-09-09T11:54:40.024Z,101744.72
2018-09-09T11:55:44.488Z,101743.84
2018-09-09T11:56:48.893Z,101738.43
2018-09-09T11:57:53.096Z,101738.23
2018-09-09T11:58:58.478Z,101736.70
2018-09-09T12:00:02.702Z,101741.93
2018-09-09T12:01:07.001Z,101734.65
2018-09-09T12:02:11.152Z,101736.68
2018-09-09T12:03:15.350Z,101738.52
2018-09-09T12:04:19.658Z,101733.41
2018-09-09T12:05:23.941Z,101731.17
2018-09-09T12:06:28.173Z,101726.88
2018-09-09T12:07:32.356Z,101722.07
2018-09-09T12:08:36.511Z,101718.31
2018-09-09T12:09:40.785Z,101720.98
2018-09-09T12:10:44.924Z,101723.97
2018-09-09T12:11:49.143Z,101729.35
2018-09-09T12:12:53.339Z,101718.84
2018-09-09T12:13:57.490Z,101720.00